Time;durP1;ratioP1;P1;durP2;ratioP2;P2;SDS_P1;SDS_P2;PMS_P1;PMS_P2;Temp;Humidity;BMP_temperature;BMP_pressure;BME280_temperature;BME280_humidity;BME280_pressure;Samples;Min_cycle;Max_cycle;Signal;HPM_P1;HPM_P2
2022/08/13 00:00:12;;;;;;;5.88;2.70;;;;;;;21.39;44.72;101561.69;5019545;28;20448;-73
2022/08/13 00:02:41;;;;;;;6.20;2.70;;;;;;;21.42;44.86;101566.63;5020894;28;20034;-73
2022/08/13 00:05:06;;;;;;;6.00;3.00;;;;;;;21.31;44.91;101565.22;5012036;28;20014;-73
2022/08/13 00:07:32;;;;;;;5.15;2.70;;;;;;;21.26;45.87;101558.81;5017465;28;20057;-74
2022/08/13 00:09:59;;;;;;;10.48;3.25;;;;;;;21.23;45.95;101567.09;5012474;28;20056;-73
2022/08/13 00:15:25;;;;;;;6.68;2.97;;;;;;;21.02;47.36;101565.91;5023699;28;20048;-73
2022/08/13 00:17:51;;;;;;;6.80;3.45;;;;;;;21.00;47.46;101567.94;5020179;28;20036;-73
2022/08/13 00:20:22;;;;;;;5.82;3.05;;;;;;;20.93;47.94;101566.97;5017334;28;20029;-73
2022/08/13 00:22:48;;;;;;;6.13;3.17;;;;;;;20.89;48.18;101565.69;5027809;28;20080;-72
2022/08/13 00:25:15;;;;;;;6.10;3.20;;;;;;;20.80;48.90;101572.00;5027011;28;20048;-73
2022/08/13 00:27:47;;;;;;;5.30;3.25;;;;;;;20.86;48.19;101571.31;5024689;28;20034;-73
2022/08/13 00:30:14;;;;;;;5.97;3.08;;;;;;;20.86;48.40;101568.66;5006137;28;20044;-73
2022/08/13 00:32:40;;;;;;;5.40;2.90;;;;;;;20.95;47.84;101565.81;5024788;28;20129;-73
2022/08/13 00:35:06;;;;;;;6.32;3.10;;;;;;;20.84;48.60;101562.75;5017097;28;20030;-73
2022/08/13 00:37:32;;;;;;;6.38;3.08;;;;;;;20.83;47.87;101566.41;5007436;28;20524;-72
2022/08/13 00:39:57;;;;;;;5.35;3.05;;;;;;;20.83;48.11;101555.84;5035697;28;20029;-72
2022/08/13 00:42:26;;;;;;;7.28;3.03;;;;;;;20.75;48.54;101569.06;5023943;28;20041;-73
2022/08/13 00:44:51;;;;;;;8.80;3.35;;;;;;;20.66;48.59;101555.94;5027257;28;20052;-73
2022/08/13 00:50:21;;;;;;;8.57;3.03;;;;;;;20.70;48.47;101566.94;4945230;28;20034;-72
2022/08/13 00:52:49;;;;;;;6.40;3.20;;;;;;;20.65;48.79;101575.38;4933163;29;20035;-72
2022/08/13 00:55:18;;;;;;;5.25;3.22;;;;;;;20.50;49.00;101577.09;4931736;28;20122;-73
2022/08/13 00:57:45;;;;;;;7.43;2.92;;;;;;;20.39;48.81;101564.28;4945415;28;20126;-72
2022/08/13 01:00:15;;;;;;;5.20;3.10;;;;;;;20.46;48.16;101575.78;4947052;28;20066;-73
2022/08/13 01:02:49;;;;;;;5.90;3.25;;;;;;;20.52;47.80;101580.38;4946034;28;20389;-74
2022/08/13 01:05:16;;;;;;;6.90;3.20;;;;;;;20.49;47.87;101583.38;4945554;28;20411;-72
2022/08/13 01:07:43;;;;;;;7.43;3.30;;;;;;;20.33;48.57;101578.13;4943749;28;20147;-74
2022/08/13 01:10:10;;;;;;;4.90;2.97;;;;;;;20.29;48.65;101574.19;4944378;28;20467;-73
2022/08/13 01:12:38;;;;;;;6.47;3.50;;;;;;;20.27;48.74;101576.19;4945579;28;20046;-73
2022/08/13 01:15:05;;;;;;;6.80;3.78;;;;;;;20.24;49.21;101576.50;4954669;28;20402;-72
2022/08/13 01:17:32;;;;;;;7.57;3.20;;;;;;;20.09;49.97;101574.59;4934100;29;20069;-73
2022/08/13 01:19:58;;;;;;;7.50;3.50;;;;;;;20.09;50.10;101566.69;4947519;28;20035;-73
2022/08/13 01:22:26;;;;;;;5.15;3.42;;;;;;;19.99;50.25;101573.97;5037094;28;20028;-73
2022/08/13 01:24:52;;;;;;;;;;;;;;;20.45;47.97;101582.03;5012432;28;20080;-72
2022/08/13 01:27:23;;;;;;;7.72;3.30;;;;;;;20.05;49.64;101573.28;5013633;28;19913;-74
2022/08/13 01:29:49;;;;;;;5.47;3.25;;;;;;;20.01;50.03;101566.69;5008175;28;20036;-74
2022/08/13 01:32:16;;;;;;;6.22;3.67;;;;;;;20.03;49.85;101570.00;5016217;28;20071;-73
2022/08/13 01:34:49;;;;;;;5.25;2.90;;;;;;;19.94;50.47;101571.00;5016492;28;20153;-73
2022/08/13 01:37:15;;;;;;;5.90;3.35;;;;;;;19.75;50.46;101566.13;5017444;28;20021;-72
2022/08/13 01:39:41;;;;;;;7.45;3.30;;;;;;;19.85;50.52;101572.03;5019021;28;20075;-77
2022/08/13 01:42:08;;;;;;;5.85;3.30;;;;;;;19.74;50.59;101567.13;5018594;28;20492;-73
2022/08/13 01:44:36;;;;;;;6.60;3.35;;;;;;;19.85;50.92;101577.28;5009398;28;20068;-73
2022/08/13 01:52:34;;;;;;;7.85;3.95;;;;;;;19.60;51.62;101569.41;5014772;28;20096;-73
2022/08/13 01:55:01;;;;;;;8.70;3.50;;;;;;;19.59;51.57;101570.41;5019023;28;20034;-72
2022/08/13 01:57:27;;;;;;;6.22;3.60;;;;;;;19.72;51.35;101579.59;5012942;28;20076;-73
2022/08/13 01:59:53;;;;;;;6.15;3.53;;;;;;;19.63;51.69;101563.81;5006657;28;20034;-76
2022/08/13 02:02:21;;;;;;;6.03;3.38;;;;;;;19.60;51.69;101569.41;5015484;28;20071;-72
2022/08/13 02:04:47;;;;;;;7.28;3.90;;;;;;;19.65;52.30;101571.56;5020285;28;20117;-73
2022/08/13 02:07:13;;;;;;;6.20;3.55;;;;;;;19.56;51.71;101565.47;5022399;28;20688;-73
2022/08/13 02:09:42;;;;;;;5.78;3.55;;;;;;;19.56;51.84;101573.34;5014815;28;20124;-72
2022/08/13 02:12:11;;;;;;;7.78;3.75;;;;;;;19.57;51.56;101572.34;5012958;28;20038;-73
2022/08/13 02:14:38;;;;;;;6.65;3.78;;;;;;;19.49;52.10;101574.97;5025279;28;20033;-72
2022/08/13 02:17:24;;;;;;;6.90;3.85;;;;;;;19.52;51.75;101572.03;5027979;28;20040;-72
2022/08/13 02:19:52;;;;;;;7.07;3.63;;;;;;;19.36;52.86;101572.03;5013040;28;20041;-72
2022/08/13 02:22:18;;;;;;;7.38;3.63;;;;;;;19.44;52.84;101568.56;5013619;28;20033;-72
2022/08/13 02:24:56;;;;;;;6.05;3.85;;;;;;;19.28;53.37;101570.22;5018096;28;20041;-72
2022/08/13 02:27:24;;;;;;;;;;;;;;;19.66;50.93;101570.56;5018238;28;20017;-73
2022/08/13 02:29:55;;;;;;;8.13;4.10;;;;;;;19.29;53.71;101571.06;5024069;28;20120;-73
2022/08/13 02:32:23;;;;;;;7.63;4.10;;;;;;;19.16;54.18;101570.72;5014782;28;20061;-72
2022/08/13 02:34:50;;;;;;;7.32;3.92;;;;;;;19.16;54.05;101576.81;5009590;28;20421;-72
2022/08/13 02:37:21;;;;;;;6.78;4.07;;;;;;;19.15;54.05;101563.78;5011353;28;20071;-72
2022/08/13 02:39:50;;;;;;;6.82;4.00;;;;;;;19.06;54.29;101561.16;5025646;28;20029;-72
2022/08/13 02:42:20;;;;;;;5.88;3.90;;;;;;;19.00;54.67;101572.34;5025057;28;20061;-72
2022/08/13 02:44:47;;;;;;;6.90;4.00;;;;;;;19.00;54.71;101572.34;5034459;28;20029;-73
2022/08/13 02:47:14;;;;;;;8.50;3.87;;;;;;;18.84;55.10;101569.66;5015495;28;20108;-72
2022/08/13 02:49:40;;;;;;;6.03;3.90;;;;;;;18.90;54.77;101561.13;5026051;28;20040;-72
2022/08/13 02:52:09;;;;;;;5.85;3.80;;;;;;;18.85;54.95;101579.19;5030603;28;20025;-72
2022/08/13 02:54:40;;;;;;;7.53;3.97;;;;;;;18.76;55.61;101574.91;5016548;28;20469;-74
2022/08/13 02:57:06;;;;;;;5.72;3.95;;;;;;;18.73;55.55;101569.97;5021061;28;20481;-73
2022/08/13 02:59:32;;;;;;;6.53;4.40;;;;;;;18.75;55.73;101562.75;5047122;28;20028;-72
2022/08/13 03:01:59;;;;;;;7.15;4.10;;;;;;;18.75;55.53;101562.75;5030366;28;20466;-74
2022/08/13 03:04:25;;;;;;;8.03;4.50;;;;;;;18.67;56.19;101557.44;5016394;28;20021;-72
2022/08/13 03:06:51;;;;;;;6.07;4.13;;;;;;;18.64;56.23;101560.38;5030403;28;20491;-73
2022/08/13 03:09:19;;;;;;;6.13;4.00;;;;;;;18.56;56.33;101564.63;5025363;28;20026;-72
2022/08/13 03:11:44;;;;;;;9.15;3.97;;;;;;;18.51;56.26;101556.41;5027889;28;20044;-72
2022/08/13 03:14:11;;;;;;;7.43;4.50;;;;;;;18.57;56.59;101561.00;5014873;28;20025;-72
2022/08/13 03:16:39;;;;;;;7.38;4.30;;;;;;;18.47;56.69;101560.34;5020426;28;20091;-72
2022/08/13 03:19:05;;;;;;;9.50;4.28;;;;;;;18.44;56.50;101565.91;5026754;28;20367;-72
2022/08/13 03:21:37;;;;;;;6.72;4.32;;;;;;;18.57;56.17;101576.78;5031817;28;20032;-72
2022/08/13 03:24:06;;;;;;;6.70;4.10;;;;;;;18.47;56.51;101586.63;5043533;28;20033;-73
2022/08/13 03:26:33;;;;;;;8.25;4.30;;;;;;;18.49;56.01;101576.75;5036633;28;20036;-72
2022/08/13 03:29:00;;;;;;;7.90;4.55;;;;;;;18.48;56.13;101580.38;5020534;28;20478;-72
2022/08/13 03:31:27;;;;;;;7.25;4.18;;;;;;;18.43;55.59;101566.91;5014632;28;20030;-72
2022/08/13 03:33:53;;;;;;;6.75;4.20;;;;;;;18.47;55.82;101581.38;5011147;28;20040;-74
2022/08/13 03:36:20;;;;;;;5.55;4.15;;;;;;;18.41;55.71;101576.75;5040300;28;20056;-72
2022/08/13 03:38:46;;;;;;;8.30;4.40;;;;;;;18.42;55.08;101572.31;5010182;28;20029;-72
2022/08/13 03:41:14;;;;;;;7.13;4.70;;;;;;;18.37;55.37;101575.41;5027337;28;20033;-72
2022/08/13 03:43:42;;;;;;;5.93;4.30;;;;;;;18.38;55.07;101582.31;5027593;28;20025;-74
2022/08/13 03:46:13;;;;;;;;;;;;;;;18.68;53.62;101580.13;5032036;28;20021;-72
2022/08/13 03:48:39;;;;;;;7.60;4.40;;;;;;;18.36;55.22;101579.03;5047336;28;19919;-73
2022/08/13 03:51:06;;;;;;;6.00;4.15;;;;;;;18.36;55.36;101573.75;5026885;28;20112;-72
2022/08/13 03:53:33;;;;;;;6.97;4.30;;;;;;;18.29;55.61;101572.72;5035281;28;20485;-73
2022/08/13 03:55:59;;;;;;;6.45;4.32;;;;;;;18.26;55.79;101578.31;5017827;28;20056;-73
2022/08/13 03:58:26;;;;;;;6.32;4.32;;;;;;;18.20;56.22;101574.50;5030751;28;20155;-72
2022/08/13 04:00:52;;;;;;;7.38;4.50;;;;;;;18.16;56.46;101573.16;5037035;28;20037;-72
2022/08/13 04:03:30;;;;;;;7.68;4.40;;;;;;;18.19;56.25;101578.13;5030752;28;20033;-72
2022/08/13 04:06:02;;;;;;;7.80;4.10;;;;;;;18.15;56.21;101570.69;5042354;28;20528;-72
2022/08/13 04:08:35;;;;;;;7.57;4.30;;;;;;;18.07;56.42;101565.41;5025346;28;20092;-72
2022/08/13 04:11:03;;;;;;;7.18;4.68;;;;;;;18.02;57.21;101561.44;5024883;28;20029;-73
2022/08/13 04:13:36;;;;;;;6.20;4.10;;;;;;;17.99;56.43;101567.00;5033902;28;20033;-72
2022/08/13 04:16:22;;;;;;;6.50;4.30;;;;;;;17.98;56.88;101562.75;5018784;28;20047;-73
2022/08/13 04:18:50;;;;;;;7.15;4.65;;;;;;;17.99;56.61;101561.75;5025010;28;20099;-74
2022/08/13 04:21:18;;;;;;;6.47;4.10;;;;;;;17.92;56.72;101555.47;5014374;28;20053;-74
2022/08/13 04:23:46;;;;;;;6.57;4.43;;;;;;;17.95;56.88;101565.69;5023321;28;20121;-73
2022/08/13 04:26:14;;;;;;;8.90;4.35;;;;;;;17.82;56.98;101565.25;5009184;28;20021;-72
2022/08/13 04:28:41;;;;;;;7.47;4.38;;;;;;;17.84;56.61;101560.69;5023681;28;20021;-72
2022/08/13 04:31:09;;;;;;;7.18;4.20;;;;;;;17.87;56.41;101563.00;5025832;28;20039;-72
2022/08/13 04:33:35;;;;;;;6.20;3.97;;;;;;;17.86;56.64;101560.53;5026036;28;20032;-73
2022/08/13 04:36:01;;;;;;;12.32;4.28;;;;;;;17.68;57.37;101573.66;5027914;28;20037;-72
2022/08/13 04:38:26;;;;;;;6.10;4.07;;;;;;;17.89;56.15;101566.31;5030236;28;20025;-74
2022/08/13 04:40:52;;;;;;;5.78;4.03;;;;;;;17.87;56.38;101578.75;5029541;28;20382;-75
2022/08/13 04:43:17;;;;;;;6.93;4.10;;;;;;;17.88;56.61;101575.13;5041037;28;20040;-72
2022/08/13 04:45:43;;;;;;;4.90;3.60;;;;;;;17.87;55.90;101573.50;5015346;28;20022;-72
2022/08/13 04:48:12;;;;;;;8.98;3.83;;;;;;;17.91;55.15;101584.53;5018397;28;20030;-72
2022/08/13 04:50:39;;;;;;;6.50;4.00;;;;;;;17.97;54.67;101574.22;5010948;28;20388;-72
2022/08/13 04:53:10;;;;;;;7.43;3.80;;;;;;;17.94;54.92;101586.81;5019207;28;20484;-72
2022/08/13 04:55:37;;;;;;;8.07;4.03;;;;;;;17.96;54.79;101588.31;5013117;28;20462;-72
2022/08/13 04:58:08;;;;;;;7.13;3.88;;;;;;;17.92;54.97;101580.91;5009613;28;20194;-72
2022/08/13 05:00:34;;;;;;;6.32;3.70;;;;;;;18.02;54.64;101587.69;5039507;28;20091;-74
2022/08/13 05:03:14;;;;;;;6.13;3.75;;;;;;;18.05;54.60;101586.56;5027600;28;20104;-72
2022/08/13 05:05:41;;;;;;;6.15;3.90;;;;;;;17.97;55.25;101587.34;5046325;28;20040;-73
2022/08/13 05:08:07;;;;;;;5.65;3.80;;;;;;;17.97;54.77;101589.97;5011060;28;20367;-73
2022/08/13 05:10:38;;;;;;;6.65;3.80;;;;;;;18.01;54.37;101586.06;5023832;28;20029;-74
2022/08/13 05:13:17;;;;;;;7.32;3.65;;;;;;;18.02;55.07;101592.94;5008269;28;20032;-72
2022/08/13 05:15:43;;;;;;;6.53;4.10;;;;;;;18.12;55.22;101586.75;5020932;28;20030;-72
2022/08/13 05:18:08;;;;;;;6.70;3.97;;;;;;;18.13;54.70;101580.53;5009964;28;20056;-73
2022/08/13 05:20:33;;;;;;;6.32;3.70;;;;;;;18.04;55.42;101590.16;5018266;28;20033;-72
2022/08/13 05:23:06;;;;;;;7.78;3.90;;;;;;;17.96;56.93;101592.75;5009904;28;20033;-72
2022/08/13 05:25:31;;;;;;;4.93;3.60;;;;;;;18.05;56.82;101582.13;5020475;28;20013;-74
2022/08/13 05:27:57;;;;;;;6.30;3.60;;;;;;;18.15;56.22;101587.28;5021491;28;20393;-72
2022/08/13 05:30:25;;;;;;;5.72;4.18;;;;;;;18.13;56.13;101591.06;5017912;28;20195;-73
2022/08/13 05:32:51;;;;;;;6.97;3.70;;;;;;;18.22;56.05;101593.53;5010816;28;20041;-73
2022/08/13 05:35:16;;;;;;;6.88;3.90;;;;;;;18.25;55.53;101592.44;5015725;28;20033;-72
2022/08/13 05:37:42;;;;;;;7.63;3.85;;;;;;;18.27;54.97;101583.41;5027393;28;20109;-72
2022/08/13 05:40:08;;;;;;;6.25;3.60;;;;;;;18.38;54.74;101592.81;5032969;28;20461;-73
2022/08/13 05:42:39;;;;;;;5.95;3.70;;;;;;;18.38;54.88;101592.81;5012479;28;20116;-73
2022/08/13 05:45:08;;;;;;;9.65;4.03;;;;;;;18.38;54.97;101582.31;5024626;28;20036;-72
2022/08/13 05:47:35;;;;;;;7.65;3.45;;;;;;;18.53;54.27;101585.97;5020659;28;20029;-72
2022/08/13 05:50:00;;;;;;;9.25;4.10;;;;;;;18.63;54.46;101579.75;5031546;28;20043;-72
2022/08/13 05:52:30;;;;;;;5.25;3.50;;;;;;;18.63;54.74;101579.75;5010184;28;20413;-72
2022/08/13 05:54:57;;;;;;;6.63;3.60;;;;;;;18.69;54.80;101589.66;4995537;28;20061;-73
2022/08/13 05:57:22;;;;;;;5.82;3.47;;;;;;;18.80;53.89;101586.72;5026436;28;20057;-71
2022/08/13 06:05:16;;;;;;;8.00;3.67;;;;;;;18.92;54.18;101584.63;5010079;28;20045;-72
2022/08/13 06:07:43;;;;;;;10.90;3.83;;;;;;;18.98;53.32;101582.19;5002009;28;20042;-72
2022/08/13 06:10:09;;;;;;;5.43;3.50;;;;;;;19.03;54.02;101590.41;5025485;28;20042;-75
2022/08/13 06:12:36;;;;;;;6.18;3.55;;;;;;;19.14;53.76;101588.44;5011167;28;20671;-72
2022/08/13 06:15:02;;;;;;;5.47;3.60;;;;;;;19.24;53.39;101583.88;5007848;28;20018;-72
2022/08/13 06:17:28;;;;;;;6.97;3.40;;;;;;;19.27;53.79;101589.63;5020529;28;20045;-73
2022/08/13 06:20:00;;;;;;;8.43;3.97;;;;;;;19.30;54.71;101583.22;5033025;28;20033;-72
2022/08/13 06:22:26;;;;;;;6.85;3.70;;;;;;;19.35;54.05;101587.00;5018945;28;20029;-76
2022/08/13 06:24:51;;;;;;;9.15;3.58;;;;;;;19.38;54.37;101580.56;5004851;28;20033;-72
2022/08/13 06:27:17;;;;;;;8.90;4.00;;;;;;;19.45;53.96;101581.56;5025205;28;20026;-73
2022/08/13 06:29:45;;;;;;;7.65;4.18;;;;;;;19.55;54.30;101587.47;5023792;28;20385;-74
2022/08/13 06:32:11;;;;;;;7.15;3.97;;;;;;;19.59;53.79;101594.09;5001354;28;20037;-73
2022/08/13 06:34:37;;;;;;;7.43;3.63;;;;;;;19.70;53.70;101589.47;5024215;28;20112;-73
2022/08/13 06:37:05;;;;;;;6.90;3.42;;;;;;;19.79;53.55;101591.13;5031090;28;20215;-73
2022/08/13 06:39:32;;;;;;;5.57;3.45;;;;;;;19.79;52.81;101591.13;5026399;28;20456;-73
2022/08/13 06:42:03;;;;;;;9.38;3.83;;;;;;;19.85;52.55;101588.66;5005918;28;20476;-74
2022/08/13 06:44:32;;;;;;;6.60;3.47;;;;;;;19.94;52.76;101597.34;5004743;28;20462;-73
2022/08/13 06:47:03;;;;;;;7.53;3.83;;;;;;;19.97;52.88;101590.94;5020162;28;20021;-73
2022/08/13 06:49:28;;;;;;;7.32;3.20;;;;;;;20.12;52.18;101587.41;5012604;28;20041;-73
2022/08/13 06:51:55;;;;;;;5.65;3.10;;;;;;;20.25;52.43;101593.97;5015835;28;20029;-74
2022/08/13 06:54:21;;;;;;;6.45;3.47;;;;;;;20.34;52.00;101588.50;5011647;28;20458;-73
2022/08/13 06:56:46;;;;;;;5.25;3.33;;;;;;;20.44;52.13;101588.31;5020812;28;20079;-74
2022/08/13 06:59:13;;;;;;;8.13;3.42;;;;;;;20.57;52.05;101593.88;5010986;28;20137;-72
2022/08/13 07:01:41;;;;;;;6.55;2.95;;;;;;;20.63;52.36;101593.16;5008996;28;20026;-76
2022/08/13 07:04:15;;;;;;;7.60;3.10;;;;;;;20.71;52.09;101594.16;5013390;28;20060;-74
2022/08/13 07:06:41;;;;;;;6.00;2.85;;;;;;;20.80;51.19;101587.81;5033071;28;20279;-73
2022/08/13 07:09:07;;;;;;;5.43;2.92;;;;;;;20.94;51.13;101589.72;5046641;28;20049;-74
2022/08/13 07:11:32;;;;;;;6.78;2.75;;;;;;;21.04;50.38;101595.56;5028520;28;20041;-73
2022/08/13 07:14:00;;;;;;;6.82;3.10;;;;;;;21.14;50.47;101596.16;5028652;28;20036;-74
2022/08/13 07:16:30;;;;;;;5.47;2.78;;;;;;;21.27;50.61;101595.56;5027650;28;20052;-74
2022/08/13 07:18:56;;;;;;;7.80;2.90;;;;;;;21.31;50.33;101590.81;5040573;28;20029;-73
2022/08/13 07:21:24;;;;;;;6.75;2.80;;;;;;;21.42;49.90;101590.38;5017905;28;20112;-73
2022/08/13 07:23:51;;;;;;;6.07;2.93;;;;;;;21.57;49.54;101601.81;5012632;28;20034;-74
2022/08/13 07:26:18;;;;;;;3.78;2.78;;;;;;;21.67;49.62;101598.91;5013509;28;20870;-74
2022/08/13 07:28:49;;;;;;;5.13;2.70;;;;;;;21.80;49.56;101606.22;5020671;28;20102;-74
2022/08/13 07:31:18;;;;;;;4.18;2.35;;;;;;;21.95;49.32;101604.41;5001670;28;20025;-74
2022/08/13 07:33:51;;;;;;;6.25;2.58;;;;;;;22.06;48.84;101606.59;5011279;28;20061;-74
2022/08/13 07:36:19;;;;;;;6.30;2.30;;;;;;;22.18;49.07;101594.59;5035047;28;20071;-75
2022/08/13 07:38:45;;;;;;;4.68;2.20;;;;;;;22.38;44.72;101604.63;5037608;28;20040;-74
2022/08/13 07:41:10;;;;;;;5.40;2.30;;;;;;;22.48;43.51;101600.72;5026745;28;20516;-74
2022/08/13 07:43:39;;;;;;;3.50;2.08;;;;;;;22.61;43.28;101602.69;5026171;28;20029;-74
2022/08/13 07:46:10;;;;;;;5.13;2.10;;;;;;;22.72;42.83;101607.50;5041633;28;20024;-75
2022/08/13 07:48:41;;;;;;;5.35;2.45;;;;;;;22.85;42.40;101603.38;5036282;28;20426;-74
2022/08/13 07:51:12;;;;;;;4.63;2.05;;;;;;;22.94;42.93;101596.97;5039398;28;20025;-73
2022/08/13 07:53:39;;;;;;;6.32;2.30;;;;;;;23.03;42.83;101604.59;5026831;28;20043;-75
2022/08/13 07:56:06;;;;;;;4.53;2.23;;;;;;;23.19;42.98;101598.25;5036335;28;20464;-75
2022/08/13 07:58:33;;;;;;;6.47;2.30;;;;;;;23.17;42.22;101600.28;5024705;28;20312;-74
2022/08/13 08:01:00;;;;;;;4.80;2.10;;;;;;;23.33;42.44;101602.63;5038824;28;20455;-75
2022/08/13 08:03:39;;;;;;;4.85;2.20;;;;;;;23.48;42.46;101601.75;5029845;28;20563;-74
2022/08/13 08:06:05;;;;;;;4.70;2.17;;;;;;;23.46;41.89;101593.19;5035891;28;20469;-74
2022/08/13 08:08:33;;;;;;;4.63;2.22;;;;;;;23.51;42.28;101590.75;5035164;28;20125;-74
2022/08/13 08:11:01;;;;;;;4.80;2.30;;;;;;;23.76;41.07;101594.66;5039107;28;20037;-75
2022/08/13 08:13:29;;;;;;;3.92;2.10;;;;;;;23.78;39.88;101592.63;5025538;28;20021;-75
2022/08/13 08:15:56;;;;;;;4.75;2.10;;;;;;;23.94;40.46;101603.94;5014359;28;20064;-74
2022/08/13 08:18:21;;;;;;;4.43;2.03;;;;;;;24.00;39.51;101595.22;5027819;28;20030;-75
2022/08/13 08:20:48;;;;;;;7.45;2.05;;;;;;;24.13;40.07;101610.38;5025191;28;20029;-76
2022/08/13 08:23:14;;;;;;;6.13;2.13;;;;;;;24.20;39.90;101612.06;5022620;28;20040;-77
2022/08/13 08:25:41;;;;;;;3.70;1.95;;;;;;;24.30;40.67;101611.69;5023395;28;20017;-75
2022/08/13 08:28:09;;;;;;;5.78;2.30;;;;;;;24.43;40.84;101622.41;5014410;28;20127;-75
2022/08/13 08:30:34;;;;;;;4.30;2.20;;;;;;;24.46;39.67;101610.56;5024262;28;20037;-75
2022/08/13 08:33:00;;;;;;;4.63;2.42;;;;;;;24.58;40.11;101604.50;5005445;28;20374;-75
2022/08/13 08:35:26;;;;;;;4.05;2.10;;;;;;;24.54;39.81;101608.56;5029928;28;20404;-76
2022/08/13 08:43:32;;;;;;;4.95;2.13;;;;;;;24.76;40.87;101611.91;5017739;28;20041;-75
2022/08/13 08:45:59;;;;;;;4.78;2.05;;;;;;;24.78;39.85;101599.28;5020692;28;20057;-75
2022/08/13 08:48:29;;;;;;;5.20;1.95;;;;;;;24.94;40.55;101602.56;5016993;28;20033;-74
2022/08/13 08:50:55;;;;;;;7.25;2.30;;;;;;;24.99;40.19;101605.44;5014584;28;20606;-75
2022/08/13 08:53:22;;;;;;;6.28;2.22;;;;;;;25.03;39.48;101606.66;5025782;28;20033;-75
2022/08/13 08:55:52;;;;;;;4.90;2.03;;;;;;;25.09;40.35;101608.53;5023954;28;20025;-75
2022/08/13 08:58:21;;;;;;;5.20;2.10;;;;;;;25.22;40.52;101605.09;5014197;28;20422;-75
2022/08/13 09:00:48;;;;;;;6.05;2.15;;;;;;;25.27;40.09;101602.63;5021717;28;20412;-75
2022/08/13 09:03:19;;;;;;;5.22;2.03;;;;;;;25.25;40.22;101594.88;5037686;28;20029;-76
2022/08/13 09:05:48;;;;;;;3.90;2.10;;;;;;;25.39;39.62;101591.19;5010458;28;20022;-74
2022/08/13 09:08:18;;;;;;;4.60;2.22;;;;;;;25.46;38.69;101587.72;5031399;28;20128;-76
2022/08/13 09:10:52;;;;;;;4.35;2.20;;;;;;;25.49;38.31;101600.59;5027500;28;20079;-75
2022/08/13 09:13:21;;;;;;;3.65;2.20;;;;;;;25.66;39.00;101596.50;5024444;28;20017;-75
2022/08/13 09:15:50;;;;;;;4.75;1.95;;;;;;;25.78;38.90;101581.59;5011624;28;20029;-75
2022/08/13 09:18:21;;;;;;;4.00;2.03;;;;;;;25.84;37.81;101580.75;5022358;28;20037;-75
2022/08/13 09:20:46;;;;;;;5.07;2.00;;;;;;;25.90;38.12;101581.78;5019097;28;20537;-74
2022/08/13 09:23:14;;;;;;;5.72;2.33;;;;;;;25.95;38.20;101574.81;5019604;28;20040;-75
2022/08/13 09:25:41;;;;;;;;;;;;;;;26.15;39.35;101584.56;5030770;28;20018;-75
2022/08/13 09:28:08;;;;;;;4.20;2.00;;;;;;;26.07;38.19;101572.31;5027517;28;20003;-76
2022/08/13 09:30:34;;;;;;;4.50;2.30;;;;;;;26.24;38.88;101578.00;5026173;28;20048;-75
2022/08/13 09:33:02;;;;;;;5.90;2.10;;;;;;;26.40;37.91;101582.84;5035595;28;20071;-75
2022/08/13 09:35:29;;;;;;;4.55;2.13;;;;;;;26.44;37.57;101586.75;5021879;28;20025;-75
2022/08/13 09:37:59;;;;;;;8.30;2.10;;;;;;;26.61;37.49;101588.91;5015828;28;20067;-75
2022/08/13 09:40:28;;;;;;;4.85;1.75;;;;;;;26.82;37.72;101580.59;5026415;28;20053;-75
2022/08/13 09:42:58;;;;;;;5.90;2.10;;;;;;;26.86;36.58;101581.81;5022118;28;20061;-75
2022/08/13 09:45:25;;;;;;;3.33;1.85;;;;;;;27.09;34.71;101585.78;5011852;28;20108;-75
2022/08/13 09:47:52;;;;;;;4.18;2.10;;;;;;;27.22;34.38;101580.34;5014434;28;20042;-75
2022/08/13 09:50:18;;;;;;;6.53;1.83;;;;;;;27.39;34.74;101581.44;5007708;28;20064;-74
2022/08/13 09:52:43;;;;;;;4.95;2.00;;;;;;;27.48;33.61;101577.47;5024600;28;20025;-74
2022/08/13 09:55:08;;;;;;;7.05;2.17;;;;;;;27.60;33.30;101574.09;5016217;28;20032;-75
2022/08/13 09:57:55;;;;;;;2.75;1.63;;;;;;;27.74;33.47;101583.59;5031342;28;20060;-76
2022/08/13 10:00:22;;;;;;;4.07;1.80;;;;;;;27.97;32.45;101578.41;5010836;28;20328;-73
2022/08/13 10:02:56;;;;;;;4.43;1.80;;;;;;;28.13;32.35;101576.22;5009724;28;20474;-76
2022/08/13 10:05:26;;;;;;;4.95;1.85;;;;;;;28.08;31.68;101573.38;5024593;28;20026;-75
2022/08/13 10:07:52;;;;;;;6.03;1.77;;;;;;;28.26;32.36;101576.03;5020033;28;20066;-74
2022/08/13 10:10:19;;;;;;;6.40;2.03;;;;;;;28.28;32.41;101563.31;5011936;28;20029;-75
2022/08/13 10:12:45;;;;;;;2.93;1.60;;;;;;;28.43;31.68;101561.06;5012858;28;20492;-76
2022/08/13 10:15:12;;;;;;;5.15;1.77;;;;;;;28.43;31.75;101571.75;5002401;28;20030;-74
2022/08/13 10:17:56;;;;;;;4.28;1.88;;;;;;;28.71;31.77;101567.66;5025994;28;20179;-74
2022/08/13 10:20:32;;;;;;;4.25;1.63;;;;;;;28.72;31.03;101559.44;5030625;28;20037;-76
2022/08/13 10:22:59;;;;;;;3.97;1.75;;;;;;;28.97;30.96;101555.81;5034449;28;20029;-74
2022/08/13 10:25:26;;;;;;;1.92;1.70;;;;;;;28.89;31.14;101554.25;5035740;28;20083;-74
2022/08/13 10:27:52;;;;;;;;;;;;;;;29.15;32.41;101552.25;5038317;28;20133;-74
2022/08/13 10:30:22;;;;;;;4.47;1.70;;;;;;;29.06;29.44;101555.22;5025448;28;19957;-75
2022/08/13 10:32:47;;;;;;;2.75;1.60;;;;;;;29.30;28.76;101547.22;5016270;28;20029;-74
2022/08/13 10:35:17;;;;;;;4.20;1.85;;;;;;;29.34;28.96;101545.72;5012849;28;20083;-75
2022/08/13 10:37:49;;;;;;;4.40;1.50;;;;;;;29.54;29.43;101554.25;5010587;28;20034;-74
2022/08/13 10:40:14;;;;;;;3.90;1.52;;;;;;;29.54;28.74;101538.22;5011651;28;20100;-75
2022/08/13 10:42:42;;;;;;;2.90;1.77;;;;;;;29.48;29.18;101549.81;5011705;28;20120;-74
2022/08/13 10:45:08;;;;;;;3.03;1.60;;;;;;;29.54;29.13;101535.53;5009919;28;20054;-74
2022/08/13 10:47:44;;;;;;;2.45;1.50;;;;;;;29.77;29.20;101547.25;5017749;28;20075;-74
2022/08/13 10:50:10;;;;;;;1.83;1.42;;;;;;;29.86;27.82;101538.63;5015353;28;20057;-75
2022/08/13 10:52:35;;;;;;;1.90;1.38;;;;;;;29.98;27.59;101543.13;5023157;28;20064;-76
2022/08/13 10:55:00;;;;;;;2.78;1.63;;;;;;;30.16;27.93;101542.97;5012956;28;20076;-75
2022/08/13 10:57:26;;;;;;;2.85;1.40;;;;;;;30.35;27.34;101535.59;5011482;28;20017;-75
2022/08/13 10:59:51;;;;;;;3.03;1.30;;;;;;;30.42;26.91;101547.78;5012649;28;20501;-74
2022/08/13 11:02:16;;;;;;;3.65;1.40;;;;;;;30.35;26.19;101546.28;5016290;28;20040;-75
2022/08/13 11:04:44;;;;;;;4.57;1.38;;;;;;;30.35;26.15;101546.28;5012393;28;20048;-75
2022/08/13 11:07:11;;;;;;;1.85;1.50;;;;;;;30.44;26.86;101544.84;5017387;28;20029;-75
2022/08/13 11:09:37;;;;;;;2.25;1.48;;;;;;;30.33;25.91;101537.69;5015444;28;20430;-74
2022/08/13 11:12:05;;;;;;;2.58;1.40;;;;;;;30.33;26.75;101553.72;5010909;28;20029;-74
2022/08/13 11:14:32;;;;;;;3.28;1.50;;;;;;;30.44;26.40;101538.69;5011878;28;20030;-75
2022/08/13 11:16:57;;;;;;;2.28;1.20;;;;;;;30.50;25.65;101532.34;5018677;28;20022;-76
2022/08/13 11:19:26;;;;;;;2.83;1.35;;;;;;;30.51;26.82;101537.50;5003955;28;20423;-75
2022/08/13 11:21:52;;;;;;;4.43;1.42;;;;;;;30.63;26.26;101538.25;5014698;28;20523;-75
2022/08/13 11:24:18;;;;;;;4.97;1.50;;;;;;;30.73;26.21;101539.47;5019654;28;20374;-75
2022/08/13 11:26:48;;;;;;;4.93;1.48;;;;;;;30.87;25.67;101540.81;5015958;28;20033;-75
2022/08/13 11:29:14;;;;;;;1.90;1.45;;;;;;;30.83;25.41;101536.97;5001629;28;20068;-76
2022/08/13 11:31:40;;;;;;;2.08;1.42;;;;;;;30.89;25.33;101536.00;5016389;28;20497;-75
2022/08/13 11:34:05;;;;;;;2.95;1.30;;;;;;;30.63;25.83;101522.19;5011478;28;20180;-74
2022/08/13 11:36:32;;;;;;;3.22;1.42;;;;;;;30.65;25.90;101525.41;5009554;28;20010;-75
2022/08/13 11:38:58;;;;;;;1.58;1.30;;;;;;;30.64;26.00;101523.78;5016967;28;20033;-75
2022/08/13 11:41:24;;;;;;;4.70;1.50;;;;;;;30.53;25.52;101516.63;5011593;28;20672;-75
2022/08/13 11:43:51;;;;;;;3.35;1.40;;;;;;;30.49;26.39;101510.13;5018576;28;20021;-74
2022/08/13 11:46:17;;;;;;;2.63;1.45;;;;;;;30.45;26.97;101514.34;5011242;28;20025;-75
2022/08/13 11:48:43;;;;;;;2.53;1.50;;;;;;;30.45;27.10;101502.81;5011513;28;20065;-75
2022/08/13 11:51:09;;;;;;;2.78;1.40;;;;;;;30.66;26.59;101510.97;5028076;28;20533;-75